DKR weather

Léopold Sédar Senghor International Airport
Dakar, Dakar Region, Senegal

Public forecast

Using degrees Celsius for public forecast. Weather courtesy of forecast.io.

METAR (pilot weather report)

Retrieved 2018/09/24 17:00 UTC (39 minutes ago):

GOOY 241700Z 30006KT 9999 FEW013 29/24 Q1010

TAF (pilot weather forecast)

Retrieved 2018/09/24 12:25 UTC (5 hours ago):

TAF GOOY 241130Z 2412/2518 36010KT 9999 SCT013